Time;durP1;ratioP1;P1;durP2;ratioP2;P2;SDS_P1;SDS_P2;PMS_P1;PMS_P2;Temp;Humidity;BMP_temperature;BMP_pressure;BME280_temperature;BME280_humidity;BME280_pressure;Samples;Min_cycle;Max_cycle;Signal;HPM_P1;HPM_P2
2022/05/02 00:01:05;;;;;;;13.02;11.50;;;8.50;99.90;;;;;;4187371;28;20042;-74
2022/05/02 00:03:08;;;;;;;11.55;10.00;;;8.50;99.90;;;;;;4187368;28;20100;-74
2022/05/02 00:05:10;;;;;;;12.65;10.05;;;8.40;99.90;;;;;;4191134;28;20052;-74
2022/05/02 00:07:12;;;;;;;11.73;10.43;;;8.40;99.90;;;;;;4181619;28;20130;-74
2022/05/02 00:09:14;;;;;;;11.48;9.18;;;8.50;99.90;;;;;;4185979;28;20148;-74
2022/05/02 00:11:16;;;;;;;11.10;9.98;;;8.50;99.90;;;;;;4183177;28;20042;-74
2022/05/02 00:13:18;;;;;;;11.75;10.30;;;8.40;99.90;;;;;;4187057;28;20057;-74
2022/05/02 00:15:20;;;;;;;11.55;10.15;;;8.50;99.90;;;;;;4180103;28;20064;-74
2022/05/02 00:17:56;;;;;;;13.15;11.02;;;8.50;99.90;;;;;;4176620;28;20880;-74
2022/05/02 00:19:46;;;;;;;12.82;11.18;;;8.50;99.90;;;;;;4175784;28;20176;-74
2022/05/02 00:21:47;;;;;;;14.38;11.73;;;8.40;99.90;;;;;;4174166;28;20903;-74
2022/05/02 00:23:49;;;;;;;16.65;13.05;;;8.40;99.90;;;;;;4175270;28;20053;-74
2022/05/02 00:25:51;;;;;;;16.58;12.77;;;8.40;99.90;;;;;;4176882;28;20832;-74
2022/05/02 00:27:53;;;;;;;23.67;17.20;;;8.40;99.90;;;;;;4174838;28;20049;-74
2022/05/02 00:29:54;;;;;;;27.92;18.63;;;8.40;99.90;;;;;;4173967;28;20156;-74
2022/05/02 00:31:56;;;;;;;13.88;12.23;;;8.40;99.90;;;;;;4176502;28;20061;-74
2022/05/02 00:33:57;;;;;;;14.55;11.18;;;8.40;99.90;;;;;;4174883;28;20172;-74
2022/05/02 00:35:59;;;;;;;11.65;10.43;;;8.40;99.90;;;;;;4177040;28;20648;-74
2022/05/02 00:38:01;;;;;;;16.05;10.65;;;8.40;99.90;;;;;;4178902;28;20053;-74
2022/05/02 00:40:04;;;;;;;12.23;10.98;;;8.30;99.90;;;;;;4172914;28;20061;-74
2022/05/02 00:42:06;;;;;;;16.45;12.77;;;8.30;99.90;;;;;;4177543;28;20057;-74
2022/05/02 00:44:08;;;;;;;30.05;20.75;;;8.20;99.90;;;;;;4172672;28;20080;-74
2022/05/02 00:46:18;;;;;;;35.65;23.58;;;8.20;99.90;;;;;;4173417;28;20067;-74
2022/05/02 00:48:20;;;;;;;28.00;18.85;;;8.20;99.90;;;;;;4175076;28;20064;-74
2022/05/02 00:50:37;;;;;;;23.40;18.45;;;8.20;99.90;;;;;;4175243;28;20153;-74
2022/05/02 00:52:39;;;;;;;15.50;12.27;;;8.20;99.90;;;;;;4175168;28;20113;-74
2022/05/02 00:54:42;;;;;;;16.48;10.95;;;8.20;99.90;;;;;;4173658;28;20054;-74
2022/05/02 00:56:44;;;;;;;16.58;12.38;;;8.20;99.90;;;;;;4172522;28;21503;-74
2022/05/02 00:58:50;;;;;;;15.18;10.75;;;8.20;99.90;;;;;;4172158;28;20076;-74
2022/05/02 01:00:52;;;;;;;13.82;10.77;;;8.10;99.90;;;;;;4175568;28;20093;-74
2022/05/02 01:03:01;;;;;;;27.33;20.35;;;8.10;99.90;;;;;;4177714;28;20053;-74
2022/05/02 01:05:04;;;;;;;22.42;18.40;;;8.00;99.90;;;;;;4175458;28;20068;-75
2022/05/02 01:07:08;;;;;;;17.35;15.25;;;8.00;99.90;;;;;;4175637;28;20956;-74
2022/05/02 01:09:10;;;;;;;19.08;15.40;;;8.10;99.90;;;;;;4172050;28;20048;-74
2022/05/02 01:11:12;;;;;;;15.50;13.40;;;8.10;99.90;;;;;;4174008;28;20057;-74
2022/05/02 01:13:43;;;;;;;14.35;12.85;;;8.00;99.90;;;;;;4170236;28;20880;-73
2022/05/02 01:15:45;;;;;;;12.43;10.88;;;8.00;99.90;;;;;;4179813;28;20064;-74
2022/05/02 01:17:47;;;;;;;13.18;11.27;;;8.00;99.90;;;;;;4170722;28;20061;-74
2022/05/02 01:19:52;;;;;;;13.25;10.60;;;8.00;99.90;;;;;;4174161;28;20057;-74
2022/05/02 01:21:54;;;;;;;16.50;10.60;;;7.90;99.90;;;;;;4170743;28;20072;-74
2022/05/02 01:23:59;;;;;;;11.27;10.13;;;7.80;99.90;;;;;;4175296;28;20097;-74
2022/05/02 01:26:01;;;;;;;13.77;11.07;;;7.90;99.90;;;;;;4173687;28;20050;-74
2022/05/02 01:28:03;;;;;;;12.73;10.80;;;7.80;99.90;;;;;;4171603;28;20054;-74
2022/05/02 01:30:05;;;;;;;16.15;11.93;;;7.80;99.90;;;;;;4171827;28;20061;-74
2022/05/02 01:32:10;;;;;;;11.77;9.73;;;7.80;99.90;;;;;;4173573;28;20057;-74
2022/05/02 01:34:13;;;;;;;12.85;10.98;;;7.80;99.90;;;;;;4175480;28;21015;-74
2022/05/02 01:36:15;;;;;;;12.43;10.85;;;7.90;99.90;;;;;;4176318;28;20112;-74
2022/05/02 01:38:17;;;;;;;11.68;10.48;;;7.90;99.90;;;;;;4175991;28;20057;-74
2022/05/02 01:40:19;;;;;;;12.30;10.95;;;7.90;99.90;;;;;;4173885;28;20065;-74
2022/05/02 01:42:20;;;;;;;11.75;10.60;;;8.00;99.90;;;;;;4175757;28;20755;-74
2022/05/02 01:44:22;;;;;;;12.65;9.93;;;7.90;99.90;;;;;;4175020;28;20057;-74
2022/05/02 01:46:24;;;;;;;16.08;11.02;;;8.00;99.90;;;;;;4175058;28;20061;-74
2022/05/02 01:48:26;;;;;;;12.93;10.63;;;8.00;99.90;;;;;;4174665;28;20906;-74
2022/05/02 01:50:28;;;;;;;11.45;10.07;;;8.00;99.90;;;;;;4174978;28;20201;-74
2022/05/02 01:52:30;;;;;;;13.60;11.18;;;8.00;99.90;;;;;;4174056;28;20061;-74
2022/05/02 01:54:31;;;;;;;12.35;10.50;;;8.00;99.90;;;;;;4174564;28;20865;-74
2022/05/02 01:56:33;;;;;;;13.23;10.20;;;8.00;99.90;;;;;;4174805;28;20062;-74
2022/05/02 01:58:35;;;;;;;12.00;10.60;;;8.00;99.90;;;;;;4178353;28;20061;-73
2022/05/02 02:00:37;;;;;;;15.35;10.20;;;8.00;99.90;;;;;;4177538;28;20172;-74
2022/05/02 02:02:38;;;;;;;12.85;11.55;;;8.00;99.90;;;;;;4170683;28;20111;-74
2022/05/02 02:07:00;;;;;;;12.13;10.93;;;8.00;99.90;;;;;;4172936;28;20058;-74
2022/05/02 02:09:02;;;;;;;13.65;11.60;;;8.00;99.90;;;;;;4175888;28;20137;-74
2022/05/02 02:11:07;;;;;;;12.63;11.27;;;8.00;99.90;;;;;;4174178;28;20168;-74
2022/05/02 02:13:12;;;;;;;13.80;11.73;;;8.10;99.90;;;;;;4172587;28;20127;-74
2022/05/02 02:15:14;;;;;;;11.73;10.50;;;8.00;99.90;;;;;;4171860;28;20065;-74
2022/05/02 02:17:16;;;;;;;15.20;12.05;;;8.10;99.90;;;;;;4177530;28;20057;-75
2022/05/02 02:19:17;;;;;;;13.38;11.38;;;8.10;99.90;;;;;;4179977;28;20068;-74
2022/05/02 02:21:19;;;;;;;15.63;12.07;;;8.10;99.90;;;;;;4169456;28;20812;-74
2022/05/02 02:23:22;;;;;;;12.27;10.98;;;8.10;99.90;;;;;;4170530;28;20060;-74
2022/05/02 02:25:24;;;;;;;12.75;11.10;;;8.10;99.90;;;;;;4168012;28;20757;-74
2022/05/02 02:27:25;;;;;;;15.75;12.18;;;8.20;99.90;;;;;;4173356;28;20104;-74
2022/05/02 02:29:27;;;;;;;13.00;11.15;;;8.20;99.90;;;;;;4168407;28;20900;-74
2022/05/02 02:31:29;;;;;;;13.10;11.10;;;8.20;99.90;;;;;;4169981;28;20053;-74
2022/05/02 02:33:31;;;;;;;38.38;24.75;;;8.10;99.90;;;;;;4172079;28;20062;-74
2022/05/02 02:35:33;;;;;;;56.50;34.40;;;8.10;99.90;;;;;;4180155;28;20084;-74
2022/05/02 02:37:35;;;;;;;48.42;33.35;;;8.10;99.90;;;;;;4169090;28;20928;-74
2022/05/02 02:39:36;;;;;;;34.15;24.38;;;8.00;99.90;;;;;;4172153;28;20100;-75
2022/05/02 02:41:38;;;;;;;38.55;25.60;;;7.90;99.90;;;;;;4171061;28;20745;-74
2022/05/02 02:43:40;;;;;;;32.47;25.85;;;7.80;99.90;;;;;;4173843;28;20064;-74
2022/05/02 02:45:41;;;;;;;34.75;26.30;;;7.80;99.90;;;;;;4175146;28;20056;-74
2022/05/02 02:47:43;;;;;;;29.42;21.27;;;7.70;99.90;;;;;;4177537;28;20065;-74
2022/05/02 02:49:45;;;;;;;26.35;19.88;;;7.70;99.90;;;;;;4176479;28;20104;-74
2022/05/02 02:51:47;;;;;;;20.15;15.50;;;7.70;99.90;;;;;;4171150;28;20058;-74
2022/05/02 02:53:50;;;;;;;20.17;15.52;;;7.60;99.90;;;;;;4173726;28;20096;-74
2022/05/02 02:55:52;;;;;;;18.90;14.35;;;7.60;99.90;;;;;;4176004;28;20140;-74
2022/05/02 02:57:54;;;;;;;20.25;16.05;;;7.60;99.90;;;;;;4175694;28;20065;-74
2022/05/02 02:59:55;;;;;;;16.73;13.27;;;7.60;99.90;;;;;;4173471;28;20057;-74
2022/05/02 03:01:57;;;;;;;12.63;11.32;;;7.70;99.90;;;;;;4175453;28;20057;-74
2022/05/02 03:06:01;;;;;;;15.77;13.70;;;7.80;99.90;;;;;;4174461;28;20050;-74
2022/05/02 03:06:21;;;;;;;22.02;12.88;;;7.90;99.90;;;;;;4174143;28;20062;-74
2022/05/02 03:08:23;;;;;;;15.05;11.45;;;7.90;99.90;;;;;;4172944;28;20132;-73
2022/05/02 03:10:26;;;;;;;15.75;13.27;;;8.00;99.90;;;;;;4174072;28;20054;-75
2022/05/02 03:12:28;;;;;;;14.15;12.45;;;8.00;99.90;;;;;;4175551;28;20057;-74
2022/05/02 03:14:30;;;;;;;15.00;12.55;;;7.90;99.90;;;;;;4174305;28;20050;-74
2022/05/02 03:16:31;;;;;;;12.63;11.32;;;7.90;99.90;;;;;;4177501;28;20072;-74
2022/05/02 03:18:34;;;;;;;13.32;11.52;;;7.90;99.90;;;;;;4176670;28;20084;-74
2022/05/02 03:20:36;;;;;;;14.82;12.65;;;7.90;99.90;;;;;;4170533;28;20062;-74
2022/05/02 03:22:37;;;;;;;18.13;12.27;;;8.00;99.90;;;;;;4174834;28;20184;-74
2022/05/02 03:24:39;;;;;;;15.65;12.25;;;8.00;99.90;;;;;;4171481;28;20316;-74
2022/05/02 03:26:41;;;;;;;14.50;11.38;;;8.00;99.90;;;;;;4177215;28;20928;-75
2022/05/02 03:28:42;;;;;;;12.30;11.10;;;8.00;99.90;;;;;;4169679;28;20062;-74
2022/05/02 03:30:44;;;;;;;13.32;12.02;;;8.00;99.90;;;;;;4168643;28;20058;-74
2022/05/02 03:32:46;;;;;;;15.75;11.40;;;8.00;99.90;;;;;;4170511;28;20101;-74
2022/05/02 03:34:47;;;;;;;13.02;11.43;;;8.00;99.90;;;;;;4175740;28;20049;-75
2022/05/02 03:36:50;;;;;;;15.70;12.27;;;8.10;99.90;;;;;;4171882;28;20092;-75
2022/05/02 03:38:51;;;;;;;14.25;11.80;;;8.00;99.90;;;;;;4172991;28;20177;-74
2022/05/02 03:40:53;;;;;;;13.40;11.43;;;8.00;99.90;;;;;;4168860;28;20053;-74
2022/05/02 03:42:55;;;;;;;13.43;12.05;;;7.90;99.90;;;;;;4170100;28;20903;-74
2022/05/02 03:44:56;;;;;;;12.93;11.63;;;8.00;99.90;;;;;;4178661;28;20180;-74
2022/05/02 03:46:58;;;;;;;14.73;13.20;;;8.00;99.90;;;;;;4176002;28;20796;-74
2022/05/02 03:49:00;;;;;;;13.38;11.95;;;8.00;99.90;;;;;;4175597;28;20053;-74
2022/05/02 03:51:02;;;;;;;13.85;12.07;;;8.00;99.90;;;;;;4175697;28;20062;-74
2022/05/02 03:53:04;;;;;;;15.48;12.60;;;8.00;99.90;;;;;;4180034;28;20053;-74
2022/05/02 03:55:06;;;;;;;12.93;11.63;;;8.00;99.90;;;;;;4179869;28;20093;-74
2022/05/02 03:57:08;;;;;;;14.95;12.05;;;8.10;99.90;;;;;;4181310;28;20057;-75
2022/05/02 03:59:10;;;;;;;13.40;12.02;;;8.10;99.90;;;;;;4179073;28;20112;-74
2022/05/02 04:01:11;;;;;;;13.77;11.57;;;8.20;99.90;;;;;;4180615;28;20871;-75
2022/05/02 04:03:13;;;;;;;14.23;12.18;;;8.20;99.90;;;;;;4181146;28;20061;-74
2022/05/02 04:05:15;;;;;;;13.55;11.98;;;8.20;99.90;;;;;;4180889;28;20777;-74
2022/05/02 04:07:16;;;;;;;14.00;11.68;;;8.30;99.90;;;;;;4181149;28;20243;-74
2022/05/02 04:09:18;;;;;;;13.93;12.25;;;8.30;99.90;;;;;;4181875;28;20088;-74
2022/05/02 04:11:20;;;;;;;13.40;11.88;;;8.30;99.90;;;;;;4181329;28;20076;-74
2022/05/02 04:13:21;;;;;;;13.15;11.85;;;8.30;99.90;;;;;;4181646;28;20062;-74
2022/05/02 04:15:23;;;;;;;19.55;12.10;;;8.30;99.90;;;;;;4181193;28;20152;-74
2022/05/02 04:17:25;;;;;;;16.17;13.43;;;8.30;99.90;;;;;;4181444;28;20180;-74
2022/05/02 04:19:27;;;;;;;12.55;11.25;;;8.40;99.90;;;;;;4183263;28;20046;-74
2022/05/02 04:21:28;;;;;;;17.55;11.77;;;8.50;99.90;;;;;;4176391;28;20034;-74
2022/05/02 04:23:34;;;;;;;14.73;12.45;;;8.60;99.90;;;;;;4177889;28;20140;-74
2022/05/02 04:25:35;;;;;;;13.77;11.55;;;8.70;99.90;;;;;;4175891;28;20096;-74
2022/05/02 04:27:37;;;;;;;14.95;11.95;;;8.70;99.90;;;;;;4177336;28;20111;-74
2022/05/02 04:29:39;;;;;;;14.10;11.75;;;8.70;99.90;;;;;;4174649;28;20068;-74
2022/05/02 04:31:40;;;;;;;14.27;12.55;;;8.70;99.90;;;;;;4178088;28;20135;-74
2022/05/02 04:33:42;;;;;;;17.15;12.38;;;8.70;99.90;;;;;;4178778;28;20058;-74
2022/05/02 04:35:43;;;;;;;20.65;12.95;;;8.70;99.90;;;;;;4178773;28;20795;-74
2022/05/02 04:37:45;;;;;;;17.35;14.65;;;8.80;99.90;;;;;;4176064;28;20060;-74
2022/05/02 04:39:47;;;;;;;15.77;12.73;;;8.80;99.90;;;;;;4179025;28;20156;-74
2022/05/02 04:41:48;;;;;;;13.10;11.77;;;8.90;99.90;;;;;;4179757;28;20061;-74
2022/05/02 04:43:52;;;;;;;16.17;12.98;;;9.00;99.90;;;;;;4173220;28;20792;-75
2022/05/02 04:45:54;;;;;;;17.05;12.32;;;9.10;99.90;;;;;;4176678;28;20096;-75
2022/05/02 04:47:57;;;;;;;14.35;12.48;;;9.20;99.90;;;;;;4173713;28;20799;-74
2022/05/02 04:49:58;;;;;;;17.88;13.00;;;9.30;99.90;;;;;;4168353;28;20152;-74
2022/05/02 04:52:00;;;;;;;17.60;12.63;;;9.30;99.90;;;;;;4174408;28;20091;-74
2022/05/02 04:54:02;;;;;;;14.27;12.77;;;9.40;99.90;;;;;;4181703;28;20057;-74
2022/05/02 04:56:04;;;;;;;17.20;13.73;;;9.60;99.90;;;;;;4172782;28;20068;-74
2022/05/02 04:58:06;;;;;;;14.85;12.13;;;9.60;99.90;;;;;;4170020;28;20924;-74
2022/05/02 05:00:08;;;;;;;16.30;12.55;;;9.80;99.90;;;;;;4168983;28;20802;-74
2022/05/02 05:02:10;;;;;;;12.85;11.50;;;9.90;99.90;;;;;;4170291;28;20065;-75
2022/05/02 05:04:12;;;;;;;20.05;13.32;;;10.00;99.90;;;;;;4171586;28;20062;-75
2022/05/02 05:06:13;;;;;;;14.90;12.90;;;10.00;99.90;;;;;;4171112;28;20065;-75
2022/05/02 05:08:15;;;;;;;17.05;13.65;;;10.10;99.90;;;;;;4176458;28;20061;-74
2022/05/02 05:10:23;;;;;;;18.15;13.35;;;10.10;99.90;;;;;;4174400;28;20800;-74
2022/05/02 05:12:54;;;;;;;18.55;13.48;;;10.20;99.90;;;;;;4176192;28;20064;-74
2022/05/02 05:18:14;;;;;;;17.60;14.87;;;10.30;99.90;;;;;;4176795;28;20076;-74
2022/05/02 05:20:27;;;;;;;15.40;12.90;;;10.40;99.90;;;;;;4173304;28;21143;-75
2022/05/02 05:22:50;;;;;;;18.15;13.65;;;10.50;99.90;;;;;;4172969;28;20062;-75
2022/05/02 05:25:01;;;;;;;25.70;14.93;;;10.60;99.90;;;;;;4175399;28;21146;-74
2022/05/02 05:27:08;;;;;;;16.30;14.48;;;10.60;99.90;;;;;;4178549;28;20770;-73
2022/05/02 05:29:22;;;;;;;18.17;14.48;;;10.60;99.90;;;;;;4181995;28;20067;-73
2022/05/02 05:31:33;;;;;;;19.55;14.57;;;10.70;99.90;;;;;;4181896;28;20841;-73
2022/05/02 05:34:08;;;;;;;18.08;15.40;;;10.80;99.90;;;;;;4180476;28;20089;-72
2022/05/02 05:36:23;;;;;;;17.95;15.85;;;10.90;99.90;;;;;;4179684;28;20093;-72
2022/05/02 05:38:58;;;;;;;20.08;15.70;;;11.10;99.90;;;;;;4177341;28;20061;-72
2022/05/02 05:41:26;;;;;;;20.38;16.58;;;11.20;99.90;;;;;;4180349;28;20807;-72
2022/05/02 05:43:44;;;;;;;18.85;15.15;;;11.30;99.90;;;;;;4180662;28;20053;-74
2022/05/02 05:46:07;;;;;;;18.50;16.33;;;11.40;99.90;;;;;;4181059;28;20058;-72
2022/05/02 05:48:28;;;;;;;16.25;14.55;;;11.50;99.90;;;;;;4180882;28;20083;-72
2022/05/02 05:50:31;;;;;;;22.38;16.33;;;11.40;99.90;;;;;;4181300;28;20055;-72
2022/05/02 05:52:55;;;;;;;17.10;15.18;;;11.60;99.90;;;;;;4176954;28;20764;-72
2022/05/02 05:55:06;;;;;;;20.42;15.88;;;11.60;99.90;;;;;;4178938;28;20058;-72
2022/05/02 05:57:32;;;;;;;19.45;15.68;;;11.70;99.90;;;;;;4177189;28;20062;-73
2022/05/02 06:00:03;;;;;;;18.17;15.70;;;11.90;99.50;;;;;;4179392;28;20064;-73
2022/05/02 06:02:17;;;;;;;18.52;16.52;;;12.00;99.40;;;;;;4177390;28;20901;-73
2022/05/02 06:04:21;;;;;;;21.48;15.63;;;12.00;98.30;;;;;;4177693;28;20796;-73
2022/05/02 06:06:23;;;;;;;19.35;16.35;;;11.90;98.20;;;;;;4175230;28;20858;-73
2022/05/02 06:08:26;;;;;;;22.55;16.88;;;12.00;98.00;;;;;;4176980;28;20083;-73
2022/05/02 06:10:29;;;;;;;21.58;15.52;;;12.00;97.60;;;;;;4176907;28;20100;-73
2022/05/02 06:12:32;;;;;;;24.45;17.60;;;12.10;97.40;;;;;;4179176;28;20057;-72
2022/05/02 06:19:28;;;;;;;18.30;15.45;;;12.30;97.10;;;;;;4175571;28;20802;-72
2022/05/02 06:21:30;;;;;;;18.48;16.38;;;12.30;96.80;;;;;;4177769;28;20061;-73
2022/05/02 06:23:36;;;;;;;21.63;17.13;;;12.40;96.90;;;;;;4177767;28;20053;-73
2022/05/02 06:25:38;;;;;;;19.17;16.27;;;12.40;96.30;;;;;;4177021;28;20058;-73
2022/05/02 06:27:42;;;;;;;20.42;16.55;;;12.40;95.90;;;;;;4175236;28;20091;-72
2022/05/02 06:29:43;;;;;;;22.27;17.08;;;12.40;96.60;;;;;;4174556;28;20087;-73
2022/05/02 06:31:48;;;;;;;18.92;16.92;;;12.50;96.70;;;;;;4174987;28;20164;-73
2022/05/02 06:33:50;;;;;;;20.50;16.00;;;12.50;96.20;;;;;;4176324;28;20180;-73
2022/05/02 06:36:13;;;;;;;18.90;16.48;;;12.60;96.30;;;;;;4174885;28;20068;-73
2022/05/02 06:38:35;;;;;;;19.48;16.25;;;12.70;96.00;;;;;;4176818;28;20119;-73
2022/05/02 06:40:49;;;;;;;29.30;22.55;;;12.80;96.10;;;;;;4158762;28;20096;-73
2022/05/02 06:43:17;;;;;;;19.23;16.60;;;12.90;96.30;;;;;;4170701;28;20055;-75
2022/05/02 06:45:43;;;;;;;19.20;16.55;;;12.90;95.20;;;;;;4177671;28;20064;-75
2022/05/02 06:48:42;;;;;;;17.95;16.02;;;13.00;95.10;;;;;;4174443;28;20058;-75
2022/05/02 06:50:49;;;;;;;20.58;16.35;;;13.00;95.00;;;;;;4157547;28;20057;-73
2022/05/02 06:53:09;;;;;;;17.92;14.75;;;13.20;94.90;;;;;;4153541;28;20058;-74
2022/05/02 06:55:48;;;;;;;17.92;15.90;;;13.20;93.80;;;;;;4162998;28;20042;-74
2022/05/02 06:58:20;;;;;;;20.33;15.40;;;13.30;93.90;;;;;;4176469;28;20055;-74
2022/05/02 07:00:22;;;;;;;18.10;16.00;;;13.30;93.80;;;;;;4176419;28;20068;-74
2022/05/02 07:02:58;;;;;;;20.67;16.48;;;13.20;93.90;;;;;;4173571;28;20137;-74
2022/05/02 07:05:06;;;;;;;18.50;16.48;;;13.20;93.70;;;;;;4172778;28;21349;-74
2022/05/02 07:07:26;;;;;;;18.73;15.88;;;13.20;93.90;;;;;;4174988;28;20068;-74
2022/05/02 07:09:45;;;;;;;19.23;17.15;;;13.30;93.40;;;;;;4170266;28;20165;-74
2022/05/02 07:12:02;;;;;;;19.27;15.95;;;13.30;93.50;;;;;;4172692;28;20097;-74
2022/05/02 07:14:31;;;;;;;21.33;17.38;;;13.30;93.50;;;;;;4169231;28;20616;-74
2022/05/02 07:16:38;;;;;;;19.67;16.52;;;13.30;93.00;;;;;;4177505;28;20056;-74
2022/05/02 07:18:52;;;;;;;19.65;16.98;;;13.30;93.40;;;;;;4170128;28;20054;-74
2022/05/02 07:21:15;;;;;;;23.75;18.40;;;13.30;93.30;;;;;;4170891;28;20075;-73
2022/05/02 07:23:29;;;;;;;22.92;16.83;;;13.30;93.00;;;;;;4178202;28;20058;-74
2022/05/02 07:25:35;;;;;;;22.42;17.88;;;13.30;93.10;;;;;;4168596;28;20084;-74
2022/05/02 07:27:53;;;;;;;19.58;17.08;;;13.30;93.00;;;;;;4168478;28;20705;-74
2022/05/02 07:29:58;;;;;;;19.50;16.17;;;13.50;93.10;;;;;;4174851;28;20973;-74
2022/05/02 07:32:01;;;;;;;20.13;17.00;;;13.50;93.10;;;;;;4166390;28;20867;-74
2022/05/02 07:34:03;;;;;;;21.20;17.33;;;13.50;92.50;;;;;;4166485;28;20038;-74
2022/05/02 07:36:06;;;;;;;23.92;18.75;;;13.60;92.70;;;;;;4177122;28;20045;-74
2022/05/02 07:38:08;;;;;;;22.50;16.50;;;13.60;92.50;;;;;;4177658;28;20053;-73
2022/05/02 07:40:12;;;;;;;20.58;17.35;;;13.70;92.70;;;;;;4168007;28;20904;-74
2022/05/02 07:42:15;;;;;;;19.85;16.98;;;13.60;91.90;;;;;;4171216;28;20057;-74
2022/05/02 07:44:20;;;;;;;20.35;16.30;;;13.50;92.30;;;;;;4176156;28;20173;-74
2022/05/02 07:46:27;;;;;;;20.38;16.20;;;13.60;92.90;;;;;;4172828;28;20061;-74
2022/05/02 07:48:32;;;;;;;21.10;16.88;;;13.80;92.90;;;;;;4176379;28;20054;-74
2022/05/02 07:50:34;;;;;;;19.83;15.80;;;13.90;92.60;;;;;;4173699;28;20097;-74
2022/05/02 07:52:40;;;;;;;20.83;16.80;;;14.00;92.60;;;;;;4172227;28;20057;-74
2022/05/02 07:54:45;;;;;;;21.73;15.75;;;14.10;92.20;;;;;;4173230;28;20058;-74
2022/05/02 07:56:49;;;;;;;19.73;16.25;;;14.10;91.80;;;;;;4172471;28;20175;-74
2022/05/02 07:58:54;;;;;;;18.90;15.40;;;14.30;91.50;;;;;;4175812;28;20779;-74
2022/05/02 08:00:56;;;;;;;19.95;15.07;;;14.30;90.80;;;;;;4171638;28;20062;-74
2022/05/02 08:02:58;;;;;;;21.67;15.55;;;14.40;89.20;;;;;;4173921;28;20079;-74
2022/05/02 08:05:00;;;;;;;17.00;14.15;;;14.40;90.20;;;;;;4175238;28;20193;-74
2022/05/02 08:07:12;;;;;;;17.95;14.75;;;14.40;90.10;;;;;;4173668;28;20052;-74
2022/05/02 08:09:41;;;;;;;18.58;14.88;;;14.40;90.30;;;;;;4173356;28;20061;-74
2022/05/02 08:12:16;;;;;;;20.10;15.40;;;14.70;90.40;;;;;;4173042;28;20104;-74
2022/05/02 08:14:25;;;;;;;17.20;14.05;;;14.80;89.80;;;;;;4173087;28;20064;-74
2022/05/02 08:16:32;;;;;;;16.38;14.60;;;14.70;90.20;;;;;;4172490;28;20050;-74
2022/05/02 08:19:03;;;;;;;17.50;14.18;;;14.80;90.10;;;;;;4174532;28;20176;-74
2022/05/02 08:21:09;;;;;;;19.02;15.27;;;14.90;88.00;;;;;;4171986;28;20061;-74
2022/05/02 08:28:48;;;;;;;14.90;13.30;;;14.70;88.60;;;;;;4176344;28;20058;-74
2022/05/02 08:31:18;;;;;;;15.20;13.70;;;14.60;88.40;;;;;;4173023;28;20066;-74
2022/05/02 08:33:26;;;;;;;19.83;14.38;;;14.70;88.50;;;;;;4177285;28;20164;-74
2022/05/02 08:35:45;;;;;;;16.42;12.77;;;14.80;88.50;;;;;;4178718;28;20706;-73
2022/05/02 08:37:50;;;;;;;15.85;13.70;;;15.00;87.80;;;;;;4175016;28;20063;-75
2022/05/02 08:40:04;;;;;;;16.50;14.73;;;15.20;87.70;;;;;;4175257;28;20627;-74
2022/05/02 08:42:58;;;;;;;16.63;12.93;;;15.10;87.30;;;;;;4171031;28;20061;-74
2022/05/02 08:45:27;;;;;;;13.35;12.05;;;14.80;87.20;;;;;;4172732;28;20056;-74
2022/05/02 08:47:59;;;;;;;14.65;13.15;;;14.50;85.60;;;;;;4176299;28;20068;-75
2022/05/02 08:50:23;;;;;;;16.08;12.75;;;14.60;85.70;;;;;;4181459;28;20057;-75
2022/05/02 08:52:52;;;;;;;15.65;13.52;;;14.80;85.60;;;;;;4169941;28;20058;-74
2022/05/02 08:55:00;;;;;;;12.82;11.63;;;14.90;85.40;;;;;;4169802;28;20062;-74
2022/05/02 08:57:28;;;;;;;16.73;12.52;;;15.20;86.10;;;;;;4174798;28;20693;-74
2022/05/02 08:59:38;;;;;;;14.95;12.90;;;15.30;83.00;;;;;;4175955;28;20180;-74
2022/05/02 09:01:58;;;;;;;;;;;15.30;83.30;;;;;;4178105;28;20743;-74
2022/05/02 09:04:25;;;;;;;16.77;12.30;;;15.30;82.10;;;;;;4173639;28;19929;-75
2022/05/02 09:06:56;;;;;;;14.07;12.20;;;15.40;81.20;;;;;;4178346;28;20853;-74
2022/05/02 09:09:27;;;;;;;15.00;11.77;;;15.50;80.10;;;;;;4175463;28;20065;-75
2022/05/02 09:11:37;;;;;;;15.85;11.82;;;15.70;80.90;;;;;;4180475;28;20058;-75
2022/05/02 09:14:17;;;;;;;12.93;11.70;;;15.90;80.40;;;;;;4177023;28;20069;-75
2022/05/02 09:16:45;;;;;;;16.55;11.93;;;16.30;78.80;;;;;;4174583;28;20097;-74
2022/05/02 09:19:04;;;;;;;9.50;8.15;;;16.60;74.30;;;;;;4172161;28;20068;-74
2022/05/02 09:21:08;;;;;;;11.50;10.30;;;16.70;71.20;;;;;;4177255;28;20094;-74
2022/05/02 09:23:19;;;;;;;17.92;11.88;;;16.70;71.70;;;;;;4176465;28;20080;-75
2022/05/02 09:25:48;;;;;;;8.32;7.63;;;16.80;75.00;;;;;;4177105;28;20062;-75
2022/05/02 09:28:13;;;;;;;8.05;6.68;;;17.00;72.60;;;;;;4176730;28;20107;-74
2022/05/02 09:30:40;;;;;;;6.78;6.20;;;16.50;67.10;;;;;;4167181;28;20833;-74
2022/05/02 09:33:03;;;;;;;9.02;7.40;;;16.00;68.50;;;;;;4172598;28;20169;-74
2022/05/02 09:35:06;;;;;;;8.65;7.03;;;15.40;70.20;;;;;;4174143;28;21083;-74
2022/05/02 09:37:20;;;;;;;9.88;8.88;;;15.40;73.00;;;;;;4174822;28;20804;-74
2022/05/02 09:39:47;;;;;;;9.50;8.52;;;15.30;73.30;;;;;;4178541;28;20159;-74
2022/05/02 09:42:15;;;;;;;11.50;9.52;;;15.40;74.60;;;;;;4171804;28;20065;-74
2022/05/02 09:49:33;;;;;;;7.00;6.40;;;15.70;70.80;;;;;;4170849;28;20616;-74
2022/05/02 09:51:55;;;;;;;7.70;7.00;;;15.50;71.40;;;;;;4173113;28;20054;-74
2022/05/02 09:56:55;;;;;;;8.05;7.28;;;15.40;71.30;;;;;;4178760;28;20762;-74
2022/05/02 09:59:24;;;;;;;8.25;7.55;;;15.50;71.80;;;;;;4171767;28;20097;-74
2022/05/02 10:01:27;;;;;;;6.60;5.78;;;15.60;70.30;;;;;;4168167;28;20064;-73
2022/05/02 10:03:35;;;;;;;7.07;6.55;;;15.90;70.20;;;;;;4169416;28;20054;-74
2022/05/02 10:05:48;;;;;;;9.13;8.00;;;16.10;70.60;;;;;;4168686;28;20062;-74
2022/05/02 10:08:09;;;;;;;9.85;8.90;;;16.10;69.50;;;;;;4175511;28;20061;-73
2022/05/02 10:10:13;;;;;;;;;;;15.90;70.60;;;;;;4176893;28;20058;-74
2022/05/02 10:12:51;;;;;;;9.55;7.70;;;15.60;71.60;;;;;;4170032;28;19976;-74
2022/05/02 10:15:34;;;;;;;8.38;7.63;;;15.30;70.80;;;;;;4176339;28;20068;-74
2022/05/02 10:17:48;;;;;;;8.43;7.50;;;15.20;71.90;;;;;;4171939;28;20069;-75
2022/05/02 10:20:13;;;;;;;9.52;7.25;;;15.50;72.40;;;;;;4169896;28;20054;-74
2022/05/02 10:22:25;;;;;;;8.38;7.38;;;15.90;71.10;;;;;;4170452;28;20161;-74
2022/05/02 10:24:44;;;;;;;9.30;8.48;;;16.10;70.10;;;;;;4176547;28;20864;-74
2022/05/02 10:26:45;;;;;;;9.13;8.23;;;16.50;70.20;;;;;;4172264;28;20869;-74
2022/05/02 10:29:02;;;;;;;8.15;7.40;;;16.60;69.30;;;;;;4175589;28;20714;-75
2022/05/02 10:31:09;;;;;;;10.63;7.90;;;16.70;70.60;;;;;;4172630;28;20058;-74
2022/05/02 10:33:20;;;;;;;11.00;7.70;;;16.70;68.40;;;;;;4176054;28;20176;-74
2022/05/02 10:35:23;;;;;;;7.72;7.03;;;16.50;69.30;;;;;;4177711;28;20081;-75
2022/05/02 10:37:31;;;;;;;7.85;7.05;;;16.60;68.80;;;;;;4178587;28;20046;-74
2022/05/02 10:39:41;;;;;;;6.82;6.25;;;16.60;68.70;;;;;;4180839;28;20066;-74
2022/05/02 10:41:48;;;;;;;8.20;7.50;;;16.70;67.90;;;;;;4171141;28;20089;-75
2022/05/02 10:43:56;;;;;;;7.47;6.80;;;16.80;66.00;;;;;;4175279;28;20057;-75
2022/05/02 10:46:00;;;;;;;6.78;5.95;;;16.90;66.00;;;;;;4172887;28;20180;-75
2022/05/02 10:48:11;;;;;;;8.65;7.28;;;17.00;68.60;;;;;;4179751;28;20060;-75
2022/05/02 10:50:16;;;;;;;7.28;6.57;;;17.20;65.50;;;;;;4175789;28;20061;-74
2022/05/02 10:52:50;;;;;;;7.63;6.80;;;17.10;65.30;;;;;;4170416;28;20057;-74
2022/05/02 10:55:11;;;;;;;8.60;7.60;;;17.10;64.60;;;;;;4174224;28;20054;-74
2022/05/02 10:57:37;;;;;;;6.67;6.17;;;17.30;64.00;;;;;;4170839;28;20049;-75
2022/05/02 10:59:44;;;;;;;7.82;7.10;;;17.50;65.20;;;;;;4175290;28;20536;-75
2022/05/02 11:02:06;;;;;;;7.13;6.53;;;17.60;63.40;;;;;;4175348;28;20058;-74
2022/05/02 11:04:33;;;;;;;7.05;6.45;;;17.40;64.10;;;;;;4166981;28;20058;-75
2022/05/02 11:06:47;;;;;;;5.80;5.28;;;17.10;65.10;;;;;;4173331;28;20061;-75
2022/05/02 11:08:57;;;;;;;6.53;5.15;;;16.80;62.50;;;;;;4175150;28;20152;-75
2022/05/02 11:11:04;;;;;;;5.97;5.47;;;16.60;63.50;;;;;;4176855;28;21330;-74
2022/05/02 11:13:34;;;;;;;6.60;5.97;;;16.60;65.40;;;;;;4179097;28;20236;-75
2022/05/02 11:16:06;;;;;;;6.70;5.88;;;16.50;65.20;;;;;;4171613;28;20069;-74
2022/05/02 11:21:19;;;;;;;8.88;6.30;;;16.90;65.20;;;;;;4166907;28;20049;-75
2022/05/02 11:23:55;;;;;;;6.20;5.07;;;17.20;62.60;;;;;;4173233;28;20058;-75
2022/05/02 11:26:11;;;;;;;5.78;5.18;;;17.30;64.70;;;;;;4176517;28;20050;-74
2022/05/02 11:28:34;;;;;;;5.75;5.25;;;17.20;64.90;;;;;;4175658;28;20819;-73
2022/05/02 11:30:51;;;;;;;5.97;5.15;;;17.20;61.40;;;;;;4174827;28;20053;-75